createdAt,value
2023-04-04T00:00:02.354Z,3.57
2023-04-04T00:03:06.524Z,3.43
2023-04-04T00:06:08.684Z,3.12
2023-04-04T00:09:10.516Z,3.14
2023-04-04T00:12:12.095Z,3.09
2023-04-04T00:15:13.606Z,2.82
2023-04-04T00:18:15.068Z,2.98
2023-04-04T00:21:16.843Z,3.14
2023-04-04T00:24:18.221Z,3.00
2023-04-04T00:27:19.657Z,2.66
2023-04-04T00:30:21.202Z,2.70
2023-04-04T00:33:22.718Z,3.01
2023-04-04T00:36:24.200Z,2.55
2023-04-04T00:39:26.564Z,2.61
2023-04-04T00:42:28.554Z,3.03
2023-04-04T00:45:31.297Z,2.57
2023-04-04T00:48:33.164Z,2.44
2023-04-04T00:51:34.595Z,2.72
2023-04-04T00:54:36.224Z,2.60
2023-04-04T00:57:37.944Z,2.37
2023-04-04T01:00:40.097Z,2.60
2023-04-04T01:03:41.747Z,2.38
2023-04-04T01:06:44.032Z,2.31
2023-04-04T01:09:45.881Z,2.62
2023-04-04T01:12:47.603Z,2.65
2023-04-04T01:15:49.208Z,2.70
2023-04-04T01:18:52.220Z,2.66
2023-04-04T01:21:56.577Z,2.05
2023-04-04T01:25:00.956Z,2.31
2023-04-04T01:28:04.241Z,2.48
2023-04-04T01:31:08.285Z,2.73
2023-04-04T01:34:32.444Z,2.81
2023-04-04T01:37:51.746Z,2.98
2023-04-04T01:41:02.623Z,2.55
2023-04-04T01:44:06.383Z,2.44
2023-04-04T01:47:08.862Z,2.52
2023-04-04T01:50:11.762Z,2.77
2023-04-04T01:53:13.437Z,2.72
2023-04-04T01:56:14.885Z,2.82
2023-04-04T01:59:16.381Z,2.48
2023-04-04T02:02:17.867Z,2.81
2023-04-04T02:05:19.741Z,2.84
2023-04-04T02:08:21.461Z,2.69
2023-04-04T02:11:28.003Z,2.60
2023-04-04T02:14:29.850Z,2.45
2023-04-04T02:17:31.753Z,2.34
2023-04-04T02:20:33.257Z,2.47
2023-04-04T02:23:34.732Z,2.23
2023-04-04T02:26:36.299Z,2.10
2023-04-04T02:29:38.086Z,2.35
2023-04-04T02:32:39.926Z,2.21
2023-04-04T02:35:42.618Z,2.22
2023-04-04T02:38:44.116Z,2.35
2023-04-04T02:41:46.471Z,2.37
2023-04-04T02:44:47.948Z,2.45
2023-04-04T02:47:52.814Z,2.39
2023-04-04T02:50:59.994Z,2.58
2023-04-04T02:54:02.992Z,2.80
2023-04-04T02:57:11.297Z,2.81
2023-04-04T03:00:13.156Z,2.55
2023-04-04T03:03:14.781Z,2.44
2023-04-04T03:06:19.401Z,2.63
2023-04-04T03:09:23.551Z,2.12
2023-04-04T03:12:27.037Z,2.07
2023-04-04T03:15:29.074Z,2.03
2023-04-04T03:18:30.615Z,2.19
2023-04-04T03:21:32.220Z,2.10
2023-04-04T03:24:33.883Z,2.13
2023-04-04T03:27:35.478Z,1.63
2023-04-04T03:30:36.922Z,2.02
2023-04-04T03:33:38.517Z,2.15
2023-04-04T03:36:40.825Z,1.87
2023-04-04T03:39:42.233Z,1.54
2023-04-04T03:42:43.747Z,1.94
2023-04-04T03:45:49.168Z,1.75
2023-04-04T03:48:50.898Z,1.94
2023-04-04T03:51:52.348Z,1.45
2023-04-04T03:54:53.834Z,1.22
2023-04-04T03:57:55.782Z,1.19
2023-04-04T04:00:57.208Z,0.95
2023-04-04T04:04:02.524Z,0.54
2023-04-04T04:07:03.968Z,1.11
2023-04-04T04:10:06.550Z,0.77
2023-04-04T04:13:08.489Z,0.79
2023-04-04T04:16:10.099Z,0.67
2023-04-04T04:19:11.657Z,0.67
2023-04-04T04:22:15.797Z,0.59
2023-04-04T04:25:18.894Z,0.39
2023-04-04T04:28:33.399Z,0.48
2023-04-04T04:31:39.272Z,0.42
2023-04-04T04:34:41.436Z,0.36
2023-04-04T04:37:43.708Z,0.64
2023-04-04T04:40:45.688Z,0.45
2023-04-04T04:43:53.615Z,1.03
2023-04-04T04:46:58.210Z,1.16
2023-04-04T04:49:59.919Z,1.11
2023-04-04T04:53:10.621Z,1.18
2023-04-04T04:56:12.126Z,1.21
2023-04-04T04:59:16.712Z,0.64
2023-04-04T05:02:19.285Z,0.59
2023-04-04T05:05:22.314Z,0.80
2023-04-04T05:08:25.161Z,1.13
2023-04-04T05:11:38.084Z,0.90
2023-04-04T05:14:41.485Z,0.68
2023-04-04T05:17:42.996Z,0.92
2023-04-04T05:20:51.615Z,0.67
2023-04-04T05:23:53.387Z,0.78
2023-04-04T05:26:57.243Z,0.40
2023-04-04T05:29:59.073Z,0.57
2023-04-04T05:33:09.321Z,0.57
2023-04-04T05:36:13.178Z,0.70
2023-04-04T05:39:20.431Z,0.52
2023-04-04T05:42:33.551Z,0.72
2023-04-04T05:45:35.183Z,0.88
2023-04-04T05:48:36.686Z,0.90
2023-04-04T05:51:38.309Z,0.57
2023-04-04T05:54:46.141Z,0.89
2023-04-04T05:57:54.913Z,0.58
2023-04-04T06:01:09.146Z,1.02
2023-04-04T06:04:12.107Z,1.05
2023-04-04T06:07:14.873Z,0.80
2023-04-04T06:10:16.857Z,0.83
2023-04-04T06:13:18.576Z,0.80
2023-04-04T06:16:26.474Z,1.21
2023-04-04T06:19:28.137Z,1.06
2023-04-04T06:22:29.598Z,1.32
2023-04-04T06:25:32.118Z,1.12
2023-04-04T06:28:34.574Z,1.34
2023-04-04T06:31:36.741Z,1.12
2023-04-04T06:34:49.379Z,0.86
2023-04-04T06:37:56.174Z,1.53
2023-04-04T06:40:58.996Z,1.46
2023-04-04T06:44:00.653Z,1.76
2023-04-04T06:47:02.374Z,1.86
2023-04-04T06:50:04.283Z,1.95
2023-04-04T06:53:06.585Z,1.91
2023-04-04T06:56:09.346Z,2.12
2023-04-04T06:59:12.255Z,2.10
2023-04-04T07:02:13.806Z,2.15
2023-04-04T07:05:17.796Z,1.86
2023-04-04T07:08:19.340Z,1.88
2023-04-04T07:11:23.647Z,2.13
2023-04-04T07:14:25.755Z,2.07
2023-04-04T07:17:27.486Z,2.11
2023-04-04T07:20:29.101Z,2.31
2023-04-04T07:23:30.839Z,2.26
2023-04-04T07:26:33.953Z,2.40
2023-04-04T07:29:35.699Z,2.43
2023-04-04T07:32:38.180Z,2.34
2023-04-04T07:35:39.864Z,2.65
2023-04-04T07:38:41.489Z,2.37
2023-04-04T07:41:42.917Z,2.64
2023-04-04T07:44:44.311Z,2.55
2023-04-04T07:47:46.606Z,2.43
2023-04-04T07:50:48.663Z,2.75
2023-04-04T07:53:50.073Z,3.34
2023-04-04T07:56:51.678Z,3.39
2023-04-04T07:59:53.106Z,3.49
2023-04-04T08:02:56.289Z,3.73
2023-04-04T08:05:57.933Z,4.05
2023-04-04T08:08:59.810Z,3.56
2023-04-04T08:12:02.164Z,3.82
2023-04-04T08:15:03.629Z,4.48
2023-04-04T08:18:05.244Z,4.55
2023-04-04T08:21:07.212Z,4.87
2023-04-04T08:24:08.726Z,4.98
2023-04-04T08:27:10.193Z,5.40
2023-04-04T08:30:14.160Z,4.99
2023-04-04T08:33:15.937Z,5.50
2023-04-04T08:36:17.844Z,5.34
2023-04-04T08:39:19.385Z,5.61
2023-04-04T08:42:21.911Z,5.20
2023-04-04T08:45:25.828Z,5.68
2023-04-04T08:48:29.828Z,5.30
2023-04-04T08:51:33.800Z,5.79
2023-04-04T08:54:37.336Z,5.82
2023-04-04T08:57:38.815Z,5.97
2023-04-04T09:00:42.660Z,6.01
2023-04-04T09:03:44.973Z,6.47
2023-04-04T09:06:46.852Z,6.29
2023-04-04T09:09:50.509Z,5.57
2023-04-04T09:12:55.481Z,5.72
2023-04-04T09:16:00.502Z,6.78
2023-04-04T09:19:02.253Z,6.53
2023-04-04T09:22:08.032Z,7.12
2023-04-04T09:25:11.156Z,6.42
2023-04-04T09:28:15.599Z,6.58
2023-04-04T09:31:17.256Z,6.88
2023-04-04T09:34:20.071Z,6.83
2023-04-04T09:37:21.534Z,7.00
2023-04-04T09:40:23.994Z,7.36
2023-04-04T09:43:25.909Z,6.68
2023-04-04T09:46:28.125Z,6.93
2023-04-04T09:49:32.655Z,5.96
2023-04-04T09:52:37.635Z,7.57
2023-04-04T09:55:39.231Z,7.59
2023-04-04T09:58:49.324Z,8.26
2023-04-04T10:01:59.901Z,8.30
2023-04-04T10:05:06.584Z,8.07
2023-04-04T10:08:21.308Z,7.84
2023-04-04T10:11:32.449Z,8.90
2023-04-04T10:14:37.571Z,8.57
2023-04-04T10:17:41.836Z,8.79
2023-04-04T10:20:44.314Z,7.78
2023-04-04T10:23:46.683Z,7.49
2023-04-04T10:26:48.182Z,8.63
2023-04-04T10:29:49.754Z,7.71
2023-04-04T10:33:15.345Z,8.57
2023-04-04T10:36:22.525Z,8.71
2023-04-04T10:39:29.413Z,9.19
2023-04-04T10:42:39.976Z,9.87
2023-04-04T10:45:42.644Z,9.04
2023-04-04T10:48:44.452Z,8.91
2023-04-04T10:51:55.831Z,8.45
2023-04-04T10:55:02.461Z,9.06
2023-04-04T10:58:04.361Z,10.10
2023-04-04T11:01:07.989Z,10.75
2023-04-04T11:04:21.164Z,10.33
2023-04-04T11:07:29.207Z,10.07
2023-04-04T11:10:36.711Z,10.28
2023-04-04T11:13:39.890Z,9.77
2023-04-04T11:16:46.904Z,9.40
2023-04-04T11:20:01.046Z,9.12
2023-04-04T11:23:04.598Z,9.30
2023-04-04T11:26:07.378Z,11.01
2023-04-04T11:29:09.216Z,10.95
2023-04-04T11:32:29.283Z,11.03
2023-04-04T11:35:30.853Z,9.60
2023-04-04T11:38:32.337Z,11.49
2023-04-04T11:41:51.983Z,12.54
2023-04-04T11:44:59.682Z,12.38
2023-04-04T11:48:01.982Z,11.61
2023-04-04T11:51:03.879Z,12.84
2023-04-04T11:54:06.427Z,12.58
2023-04-04T11:57:27.068Z,12.73
2023-04-04T12:00:33.037Z,11.17
2023-04-04T12:03:35.024Z,11.74
2023-04-04T12:06:38.293Z,11.51
2023-04-04T12:09:40.396Z,11.26
2023-04-04T12:12:42.172Z,10.67
2023-04-04T12:15:44.098Z,11.08
2023-04-04T12:18:46.389Z,11.17
2023-04-04T12:21:48.169Z,10.17
2023-04-04T12:24:49.694Z,10.54
2023-04-04T12:27:52.697Z,10.69
2023-04-04T12:30:54.145Z,10.21
2023-04-04T12:33:55.642Z,9.59
2023-04-04T12:36:58.625Z,9.61
2023-04-04T12:40:02.303Z,10.07
2023-04-04T12:43:08.750Z,9.83
2023-04-04T12:46:10.472Z,9.40
2023-04-04T12:49:12.081Z,9.39
2023-04-04T12:52:27.715Z,8.90
2023-04-04T12:55:31.470Z,8.54
2023-04-04T12:58:35.712Z,8.44
2023-04-04T13:01:38.545Z,9.05
2023-04-04T13:04:40.547Z,8.96
2023-04-04T13:07:45.028Z,9.32
2023-04-04T13:10:56.904Z,9.24
2023-04-04T13:14:03.122Z,8.92
2023-04-04T13:17:08.152Z,8.77
2023-04-04T13:20:11.155Z,9.18
2023-04-04T13:23:13.562Z,9.37
2023-04-04T13:26:15.016Z,9.10
2023-04-04T13:29:16.509Z,9.07
2023-04-04T13:32:17.944Z,9.01
2023-04-04T13:35:19.443Z,9.41
2023-04-04T13:38:20.886Z,9.08
2023-04-04T13:41:22.444Z,8.90
2023-04-04T13:44:25.390Z,9.21
2023-04-04T13:47:28.593Z,8.50
2023-04-04T13:50:35.072Z,8.81
2023-04-04T13:53:36.756Z,8.76
2023-04-04T13:56:38.500Z,8.82
2023-04-04T13:59:39.930Z,9.36
2023-04-04T14:02:41.911Z,9.43
2023-04-04T14:05:43.577Z,9.15
2023-04-04T14:08:46.541Z,9.54
2023-04-04T14:11:48.128Z,9.40
2023-04-04T14:14:49.606Z,9.46
2023-04-04T14:17:51.163Z,9.60
2023-04-04T14:20:52.817Z,9.29
2023-04-04T14:23:54.249Z,9.40
2023-04-04T14:26:55.779Z,9.68
2023-04-04T14:29:57.182Z,8.87
2023-04-04T14:32:58.705Z,9.01
2023-04-04T14:36:00.224Z,9.15
2023-04-04T14:39:02.213Z,9.43
2023-04-04T14:42:04.054Z,9.08
2023-04-04T14:45:07.827Z,9.11
2023-04-04T14:48:09.525Z,9.22
2023-04-04T14:51:11.218Z,8.96
2023-04-04T14:54:12.945Z,9.17
2023-04-04T14:57:14.413Z,9.43
2023-04-04T15:00:20.413Z,9.55
2023-04-04T15:03:22.202Z,9.16
2023-04-04T15:06:24.157Z,9.13
2023-04-04T15:09:25.593Z,9.26
2023-04-04T15:12:27.051Z,9.03
2023-04-04T15:15:29.017Z,9.25
2023-04-04T15:18:30.898Z,9.40
2023-04-04T15:21:32.347Z,9.17
2023-04-04T15:24:34.708Z,9.21
2023-04-04T15:27:36.223Z,9.03
2023-04-04T15:30:39.043Z,9.11
2023-04-04T15:33:41.311Z,9.33
2023-04-04T15:36:44.157Z,9.30
2023-04-04T15:39:52.757Z,9.19
2023-04-04T15:42:56.912Z,9.36
2023-04-04T15:45:58.543Z,9.05
2023-04-04T15:49:00.053Z,9.03
2023-04-04T15:52:02.616Z,8.93
2023-04-04T15:55:04.737Z,9.31
2023-04-04T15:58:06.588Z,9.10
2023-04-04T16:01:08.352Z,8.75
2023-04-04T16:04:10.127Z,8.96
2023-04-04T16:07:11.612Z,9.05
2023-04-04T16:10:14.294Z,9.05
2023-04-04T16:13:15.961Z,8.93
2023-04-04T16:16:17.816Z,9.06
2023-04-04T16:19:19.255Z,9.04
2023-04-04T16:22:20.711Z,8.88
2023-04-04T16:25:22.228Z,9.24
2023-04-04T16:28:23.682Z,8.84
2023-04-04T16:31:25.428Z,8.70
2023-04-04T16:34:26.948Z,8.85
2023-04-04T16:37:28.492Z,8.84
2023-04-04T16:40:29.939Z,8.49
2023-04-04T16:43:31.829Z,8.71
2023-04-04T16:46:33.485Z,8.73
2023-04-04T16:49:34.987Z,8.82
2023-04-04T16:52:36.423Z,8.86
2023-04-04T16:55:37.881Z,8.59
2023-04-04T16:58:39.909Z,8.65
2023-04-04T17:01:41.370Z,8.73
2023-04-04T17:04:43.827Z,8.73
2023-04-04T17:07:45.200Z,8.53
2023-04-04T17:10:46.616Z,8.54
2023-04-04T17:13:48.616Z,8.75
2023-04-04T17:16:50.188Z,8.61
2023-04-04T17:19:51.989Z,8.41
2023-04-04T17:22:53.967Z,8.52
2023-04-04T17:25:55.452Z,8.32
2023-04-04T17:28:56.848Z,8.37
2023-04-04T17:31:58.300Z,8.29
2023-04-04T17:35:02.866Z,8.30
2023-04-04T17:38:04.289Z,8.12
2023-04-04T17:41:07.497Z,8.21
2023-04-04T17:44:09.443Z,7.94
2023-04-04T17:47:12.227Z,7.62
2023-04-04T17:50:13.696Z,7.86
2023-04-04T17:53:15.354Z,7.86
2023-04-04T17:56:16.984Z,8.01
2023-04-04T17:59:18.864Z,8.01
2023-04-04T18:02:20.565Z,7.83
2023-04-04T18:05:22.858Z,7.69
2023-04-04T18:08:24.328Z,7.78
2023-04-04T18:11:27.672Z,7.83
2023-04-04T18:14:29.207Z,7.80
2023-04-04T18:17:32.253Z,7.73
2023-04-04T18:20:36.067Z,7.57
2023-04-04T18:23:37.469Z,7.59
2023-04-04T18:26:38.938Z,7.60
2023-04-04T18:29:41.458Z,7.51
2023-04-04T18:32:42.847Z,7.43
2023-04-04T18:35:44.238Z,7.42
2023-04-04T18:38:46.812Z,7.32
2023-04-04T18:41:49.302Z,7.34
2023-04-04T18:44:52.910Z,7.22
2023-04-04T18:47:54.498Z,7.25
2023-04-04T18:50:56.251Z,7.18
2023-04-04T18:53:57.686Z,7.11
2023-04-04T18:57:00.660Z,6.93
2023-04-04T19:00:02.143Z,6.49
2023-04-04T19:03:03.733Z,6.27
2023-04-04T19:06:06.413Z,6.19
2023-04-04T19:09:09.721Z,6.32
2023-04-04T19:12:11.274Z,6.52
2023-04-04T19:15:12.733Z,6.74
2023-04-04T19:18:14.262Z,6.81
2023-04-04T19:21:16.012Z,6.85
2023-04-04T19:24:17.736Z,6.66
2023-04-04T19:27:19.257Z,6.41
2023-04-04T19:30:39.910Z,6.28
2023-04-04T19:33:41.483Z,5.87
2023-04-04T19:36:42.969Z,5.70
2023-04-04T19:39:45.290Z,5.67
2023-04-04T19:42:47.000Z,5.45
2023-04-04T19:45:50.942Z,5.43
2023-04-04T19:48:56.773Z,5.36
2023-04-04T19:52:00.250Z,5.36
2023-04-04T19:55:02.709Z,5.26
2023-04-04T19:58:05.415Z,5.12
2023-04-04T20:01:08.618Z,5.13
2023-04-04T20:04:10.361Z,5.04
2023-04-04T20:07:12.514Z,5.01
2023-04-04T20:10:37.626Z,5.07
2023-04-04T20:13:40.748Z,4.95
2023-04-04T20:16:42.309Z,4.88
2023-04-04T20:19:43.787Z,4.88
2023-04-04T20:22:45.322Z,5.00
2023-04-04T20:25:49.110Z,4.91
2023-04-04T20:28:50.850Z,4.77
2023-04-04T20:31:55.176Z,4.70
2023-04-04T20:34:56.914Z,4.63
2023-04-04T20:37:58.329Z,4.78
2023-04-04T20:41:00.594Z,4.92
2023-04-04T20:44:02.294Z,5.23
2023-04-04T20:47:07.185Z,5.50
2023-04-04T20:50:34.908Z,5.32
2023-04-04T20:53:36.326Z,5.41
2023-04-04T20:56:44.424Z,5.45
2023-04-04T20:59:48.474Z,5.41
2023-04-04T21:02:50.072Z,5.38
2023-04-04T21:05:53.105Z,5.29
2023-04-04T21:08:54.600Z,4.80
2023-04-04T21:11:59.173Z,4.89
2023-04-04T21:15:00.661Z,4.98
2023-04-04T21:18:07.441Z,5.17
2023-04-04T21:21:10.303Z,5.31
2023-04-04T21:24:12.997Z,5.29
2023-04-04T21:27:34.547Z,5.22
2023-04-04T21:30:41.959Z,5.21
2023-04-04T21:33:45.071Z,5.30
2023-04-04T21:36:47.977Z,5.32
2023-04-04T21:39:53.379Z,5.02
2023-04-04T21:42:54.819Z,4.75
2023-04-04T21:45:56.415Z,4.62
2023-04-04T21:48:57.989Z,4.75
2023-04-04T21:51:59.405Z,4.65
2023-04-04T21:55:00.903Z,4.86
2023-04-04T21:58:02.331Z,4.67
2023-04-04T22:01:03.810Z,4.92
2023-04-04T22:04:05.443Z,4.82
2023-04-04T22:07:06.889Z,4.52
2023-04-04T22:10:10.162Z,4.45
2023-04-04T22:13:14.738Z,4.59
2023-04-04T22:16:17.721Z,4.75
2023-04-04T22:19:23.368Z,4.58
2023-04-04T22:22:31.237Z,4.50
2023-04-04T22:25:35.279Z,4.47
2023-04-04T22:28:38.801Z,4.15
2023-04-04T22:31:40.272Z,4.32
2023-04-04T22:34:41.694Z,4.35
2023-04-04T22:37:45.810Z,4.39
2023-04-04T22:40:47.220Z,4.19
2023-04-04T22:43:48.615Z,3.99
2023-04-04T22:46:50.224Z,4.05
2023-04-04T22:49:51.696Z,4.10
2023-04-04T22:52:54.645Z,4.21
2023-04-04T22:55:59.697Z,4.18
2023-04-04T22:59:01.196Z,4.26
2023-04-04T23:02:02.651Z,4.35
2023-04-04T23:05:04.346Z,3.75
2023-04-04T23:08:05.927Z,3.82
2023-04-04T23:11:07.485Z,3.95
2023-04-04T23:14:09.608Z,3.79
2023-04-04T23:17:11.562Z,3.96
2023-04-04T23:20:13.178Z,3.69
2023-04-04T23:23:14.625Z,3.52
2023-04-04T23:26:16.198Z,3.45
2023-04-04T23:29:18.131Z,3.58
2023-04-04T23:32:19.544Z,3.80
2023-04-04T23:35:21.038Z,3.94
2023-04-04T23:38:22.586Z,3.63
2023-04-04T23:41:24.003Z,3.89
2023-04-04T23:44:25.391Z,4.17
2023-04-04T23:47:26.862Z,3.66
2023-04-04T23:50:29.049Z,3.67
2023-04-04T23:53:30.667Z,3.75
2023-04-04T23:56:33.194Z,3.57
2023-04-04T23:59:34.631Z,3.55
